Time;durP1;ratioP1;P1;durP2;ratioP2;P2;SDS_P1;SDS_P2;PMS_P1;PMS_P2;Temp;Humidity;BMP_temperature;BMP_pressure;BME280_temperature;BME280_humidity;BME280_pressure;Samples;Min_cycle;Max_cycle;Signal;HPM_P1;HPM_P2
2022/06/27 00:00:22;;;;;;;3.55;2.97;;;;;;;19.74;100.00;94738.91;5055543;28;20201;-65
2022/06/27 00:02:48;;;;;;;5.40;3.35;;;;;;;19.51;100.00;94730.56;5035248;28;20189;-64
2022/06/27 00:05:13;;;;;;;3.90;2.70;;;;;;;19.31;100.00;94737.22;5053484;28;20232;-65
2022/06/27 00:07:39;;;;;;;7.30;3.05;;;;;;;19.41;100.00;94740.38;5053276;28;20231;-65
2022/06/27 00:10:06;;;;;;;6.07;3.05;;;;;;;19.50;100.00;94736.69;5053385;28;20205;-65
2022/06/27 00:12:32;;;;;;;4.15;2.75;;;;;;;19.35;100.00;94737.72;5054661;28;20181;-64
2022/06/27 00:14:58;;;;;;;4.10;2.90;;;;;;;19.18;100.00;94732.72;5054403;28;20221;-65
2022/06/27 00:17:23;;;;;;;3.28;2.50;;;;;;;19.15;100.00;94735.66;5054344;28;20257;-62
2022/06/27 00:19:49;;;;;;;4.25;3.35;;;;;;;19.13;100.00;94735.03;5054552;28;20294;-62
2022/06/27 00:22:14;;;;;;;8.75;2.97;;;;;;;19.11;100.00;94726.69;5054378;28;20173;-65
2022/06/27 00:24:40;;;;;;;4.85;3.00;;;;;;;19.18;100.00;94737.06;5036602;28;20637;-60
2022/06/27 00:27:05;;;;;;;5.30;3.35;;;;;;;19.17;100.00;94736.28;5061075;22;20651;-59
2022/06/27 00:29:31;;;;;;;4.43;3.25;;;;;;;19.39;100.00;94737.16;5053416;28;20577;-63
2022/06/27 00:31:56;;;;;;;7.85;2.97;;;;;;;19.47;100.00;94742.22;5054361;28;20662;-62
2022/06/27 00:34:22;;;;;;;6.15;2.92;;;;;;;19.19;100.00;94729.16;5053839;28;20202;-63
2022/06/27 00:36:47;;;;;;;3.58;3.28;;;;;;;19.06;100.00;94729.00;5054058;28;20181;-64
2022/06/27 00:39:13;;;;;;;5.10;3.40;;;;;;;19.06;100.00;94730.78;5053983;28;20209;-63
2022/06/27 00:41:38;;;;;;;6.63;3.58;;;;;;;19.08;100.00;94737.34;5053694;28;20190;-65
2022/06/27 00:44:04;;;;;;;5.93;3.63;;;;;;;19.02;100.00;94732.13;5035383;28;20173;-64
2022/06/27 00:46:29;;;;;;;4.13;3.72;;;;;;;18.99;100.00;94719.56;5053663;28;20201;-60
2022/06/27 00:48:56;;;;;;;4.65;3.47;;;;;;;19.20;100.00;94735.13;5059689;22;20232;-64
2022/06/27 00:51:24;;;;;;;4.40;3.40;;;;;;;19.19;100.00;94730.91;5052503;28;20809;-64
2022/06/27 00:53:51;;;;;;;4.75;3.70;;;;;;;19.09;100.00;94728.63;5053867;28;20205;-64
2022/06/27 00:56:17;;;;;;;6.22;3.70;;;;;;;19.04;100.00;94728.38;5060656;22;20225;-63
2022/06/27 00:58:42;;;;;;;6.72;4.13;;;;;;;19.02;100.00;94724.38;5035848;28;20243;-59
2022/06/27 01:01:08;;;;;;;9.57;3.90;;;;;;;18.95;100.00;94724.28;5060416;22;20232;-64
2022/06/27 01:03:33;;;;;;;5.13;3.55;;;;;;;18.93;100.00;94720.28;5053535;28;20216;-64
2022/06/27 01:05:59;;;;;;;5.07;3.80;;;;;;;18.85;100.00;94717.81;5053715;28;20281;-59
2022/06/27 01:08:25;;;;;;;5.70;3.65;;;;;;;18.87;100.00;94705.53;5053358;28;20193;-60
2022/06/27 01:10:51;;;;;;;5.00;3.90;;;;;;;18.89;100.00;94711.31;5035945;28;20201;-60
2022/06/27 01:13:16;;;;;;;4.85;4.43;;;;;;;18.91;100.00;94707.59;5052797;28;20185;-61
2022/06/27 01:15:43;;;;;;;4.53;4.07;;;;;;;18.93;100.00;94709.97;5052866;28;20209;-60
2022/06/27 01:18:15;;;;;;;4.65;4.20;;;;;;;18.82;100.00;94713.03;5035525;28;20202;-59
2022/06/27 01:20:43;;;;;;;5.10;3.78;;;;;;;18.76;100.00;94713.75;5053204;28;20237;-60
2022/06/27 01:23:08;;;;;;;5.60;4.00;;;;;;;18.62;100.00;94715.34;5018767;28;20235;-60
2022/06/27 01:25:35;;;;;;;3.95;3.47;;;;;;;18.57;100.00;94714.25;5053021;28;20197;-64
2022/06/27 01:28:03;;;;;;;4.68;3.80;;;;;;;18.67;100.00;94702.72;5053226;28;20653;-62
2022/06/27 01:30:28;;;;;;;8.10;3.55;;;;;;;18.69;100.00;94708.50;5053558;28;20284;-64
2022/06/27 01:32:54;;;;;;;8.80;4.03;;;;;;;18.76;100.00;94714.53;5053132;28;20262;-62
2022/06/27 01:35:19;;;;;;;9.82;4.30;;;;;;;18.75;100.00;94720.66;5053286;28;20569;-64
2022/06/27 01:37:45;;;;;;;8.25;4.00;;;;;;;18.97;100.00;94731.84;5052934;28;20705;-64
2022/06/27 01:40:11;;;;;;;5.30;3.90;;;;;;;19.12;100.00;94732.63;5053158;28;20339;-65
2022/06/27 01:42:37;;;;;;;3.80;3.47;;;;;;;19.00;100.00;94737.44;5052858;28;20185;-65
2022/06/27 01:45:03;;;;;;;5.82;3.45;;;;;;;18.92;100.00;94742.69;5053154;28;20220;-61
2022/06/27 01:47:29;;;;;;;6.85;3.58;;;;;;;18.80;100.00;94745.88;5052998;28;20181;-64
2022/06/27 01:49:55;;;;;;;3.97;3.03;;;;;;;18.74;100.00;94751.75;5053032;28;20202;-64
2022/06/27 01:52:21;;;;;;;3.95;2.58;;;;;;;18.43;100.00;94747.53;5052581;28;20170;-64
2022/06/27 01:54:47;;;;;;;5.65;3.38;;;;;;;18.22;100.00;94731.94;5034204;28;20225;-64
2022/06/27 01:57:16;;;;;;;6.45;3.20;;;;;;;18.09;100.00;94731.72;5034529;28;20245;-63
2022/06/27 01:59:42;;;;;;;5.38;3.17;;;;;;;17.99;100.00;94744.03;5034437;28;20292;-59
2022/06/27 02:02:08;;;;;;;3.70;3.40;;;;;;;17.89;100.00;94728.03;5052394;28;20227;-60
2022/06/27 02:04:36;;;;;;;6.03;3.00;;;;;;;17.72;100.00;94739.41;5052232;28;20205;-61
2022/06/27 02:07:03;;;;;;;5.20;3.58;;;;;;;17.61;100.00;94742.38;5052541;28;20182;-64
2022/06/27 02:09:28;;;;;;;7.47;3.88;;;;;;;17.81;100.00;94742.72;5052402;28;20212;-60
2022/06/27 02:11:55;;;;;;;6.50;3.22;;;;;;;17.87;100.00;94747.97;5052417;28;20173;-59
2022/06/27 02:14:21;;;;;;;4.45;3.75;;;;;;;17.84;100.00;94750.88;5052241;28;20213;-62
2022/06/27 02:16:47;;;;;;;8.30;4.25;;;;;;;17.71;100.00;94748.09;5052263;28;20231;-63
2022/06/27 02:19:18;;;;;;;10.18;3.80;;;;;;;17.82;100.00;94752.00;5052373;28;20186;-60
2022/06/27 02:21:45;;;;;;;4.18;3.80;;;;;;;17.84;100.00;94747.50;5052232;28;20215;-64
2022/06/27 02:24:12;;;;;;;5.40;4.00;;;;;;;17.87;100.00;94752.31;5052132;28;20260;-63
2022/06/27 02:26:38;;;;;;;5.22;3.72;;;;;;;17.87;100.00;94747.19;5052089;28;20230;-63
2022/06/27 02:29:04;;;;;;;5.50;4.57;;;;;;;17.81;100.00;94753.00;5052109;28;20189;-65
2022/06/27 02:31:29;;;;;;;5.38;4.00;;;;;;;17.85;100.00;94752.50;5051782;28;20721;-63
2022/06/27 02:33:56;;;;;;;6.57;4.05;;;;;;;17.94;100.00;94756.59;5052078;28;20675;-60
2022/06/27 02:36:32;;;;;;;3.50;3.17;;;;;;;18.06;100.00;94757.00;5033986;28;20309;-64
2022/06/27 02:38:59;;;;;;;4.70;3.75;;;;;;;18.14;100.00;94760.31;5051951;28;20196;-60
2022/06/27 02:41:29;;;;;;;7.68;4.57;;;;;;;18.21;100.00;94758.66;5051594;28;20200;-63
2022/06/27 02:44:00;;;;;;;5.13;4.25;;;;;;;18.31;100.00;94761.78;5052068;28;20308;-63
2022/06/27 02:46:26;;;;;;;4.20;3.80;;;;;;;18.58;100.00;94770.75;5033899;28;20205;-63
2022/06/27 02:48:52;;;;;;;4.85;3.70;;;;;;;18.62;100.00;94774.56;5051608;28;20193;-60
2022/06/27 02:51:24;;;;;;;8.75;4.38;;;;;;;18.44;100.00;94774.88;5051693;28;20212;-63
2022/06/27 02:54:03;;;;;;;7.75;4.18;;;;;;;18.32;100.00;94775.47;5051885;28;20272;-60
2022/06/27 02:56:29;;;;;;;6.82;4.22;;;;;;;18.15;100.00;94771.41;5051532;28;20197;-63
2022/06/27 02:59:26;;;;;;;5.85;4.20;;;;;;;17.95;100.00;94777.97;5034217;28;20186;-63
2022/06/27 03:01:55;;;;;;;7.07;4.85;;;;;;;17.74;100.00;94786.31;5033686;28;20185;-63
2022/06/27 03:04:21;;;;;;;5.68;4.32;;;;;;;17.58;100.00;94782.06;5051851;28;20185;-63
2022/06/27 03:06:49;;;;;;;7.10;4.80;;;;;;;17.69;100.00;94780.88;5054539;28;20647;-62
2022/06/27 03:09:15;;;;;;;5.50;4.47;;;;;;;17.54;100.00;94785.94;5055717;28;20185;-65
2022/06/27 03:11:41;;;;;;;6.45;4.43;;;;;;;17.55;100.00;94781.63;5055748;28;20219;-63
2022/06/27 03:14:07;;;;;;;6.43;4.55;;;;;;;17.66;100.00;94786.34;5037732;28;20248;-64
2022/06/27 03:16:32;;;;;;;5.93;4.30;;;;;;;17.70;100.00;94795.34;5055472;28;20371;-63
2022/06/27 03:18:58;;;;;;;4.22;3.83;;;;;;;17.61;100.00;94802.28;5055587;28;20189;-60
2022/06/27 03:21:23;;;;;;;11.40;3.90;;;;;;;17.50;100.00;94781.31;5055397;28;20201;-64
2022/06/27 03:23:49;;;;;;;6.30;3.95;;;;;;;17.46;100.00;94783.38;5055236;28;20554;-64
2022/06/27 03:26:17;;;;;;;4.30;3.92;;;;;;;17.49;100.00;94777.16;5055311;28;20685;-64
2022/06/27 03:28:43;;;;;;;6.03;4.15;;;;;;;17.64;100.00;94806.28;5037112;28;20178;-64
2022/06/27 03:31:09;;;;;;;7.28;3.70;;;;;;;17.59;100.00;94795.72;5061406;22;20330;-60
2022/06/27 03:33:35;;;;;;;4.47;4.07;;;;;;;17.63;100.00;94779.00;5055237;28;20174;-64
2022/06/27 03:36:01;;;;;;;3.83;3.20;;;;;;;17.53;100.00;94783.56;5055423;28;20216;-64
2022/06/27 03:38:27;;;;;;;4.18;3.78;;;;;;;17.53;100.00;94801.56;5055170;28;20169;-65
2022/06/27 03:40:53;;;;;;;3.53;3.15;;;;;;;17.29;100.00;94788.78;5068511;22;20241;-64
2022/06/27 03:43:19;;;;;;;5.72;3.75;;;;;;;17.32;100.00;94791.00;5055310;28;20178;-65
2022/06/27 03:45:44;;;;;;;3.90;3.28;;;;;;;17.34;100.00;94789.06;5055016;28;20201;-63
2022/06/27 03:49:59;;;;;;;4.53;3.45;;;;;;;17.36;100.00;94794.84;5054995;28;20680;-65
2022/06/27 03:50:55;;;;;;;5.47;3.47;;;;;;;17.39;100.00;94799.66;5054953;28;20593;-59
2022/06/27 03:53:20;;;;;;;2.97;2.72;;;;;;;17.33;100.00;94779.75;5054738;28;20186;-63
2022/06/27 03:55:46;;;;;;;3.47;3.00;;;;;;;17.42;100.00;94807.81;5055019;28;20213;-63
2022/06/27 03:58:11;;;;;;;3.53;3.05;;;;;;;17.38;100.00;94800.59;5054937;28;20189;-64
2022/06/27 04:00:37;;;;;;;8.40;3.65;;;;;;;17.33;100.00;94797.75;5054426;28;20249;-65
2022/06/27 04:03:02;;;;;;;7.88;3.40;;;;;;;17.35;100.00;94788.09;5036698;28;20679;-65
2022/06/27 04:05:28;;;;;;;4.32;3.20;;;;;;;17.35;100.00;94794.03;5054362;28;20705;-65
2022/06/27 04:07:53;;;;;;;5.40;3.17;;;;;;;17.40;100.00;94801.25;5054406;28;20205;-64
2022/06/27 04:10:19;;;;;;;4.05;3.65;;;;;;;17.37;100.00;94799.81;5054290;28;20224;-63
2022/06/27 04:12:44;;;;;;;4.30;3.58;;;;;;;17.30;100.00;94788.59;5037068;28;20218;-64
2022/06/27 04:15:11;;;;;;;3.90;3.58;;;;;;;17.16;100.00;94776.47;5054352;28;20270;-64
2022/06/27 04:17:37;;;;;;;5.40;3.90;;;;;;;17.14;100.00;94773.25;5054468;28;20177;-65
2022/06/27 04:20:03;;;;;;;3.63;3.30;;;;;;;17.16;100.00;94775.66;5054227;28;20236;-66
2022/06/27 04:22:29;;;;;;;5.57;3.47;;;;;;;17.26;100.00;94777.06;5054715;28;20186;-65
2022/06/27 04:24:55;;;;;;;3.42;3.13;;;;;;;17.38;100.00;94778.28;5054119;28;20205;-63
2022/06/27 04:27:21;;;;;;;6.03;3.28;;;;;;;17.76;100.00;94797.22;5054665;28;20261;-65
2022/06/27 04:29:50;;;;;;;4.10;3.45;;;;;;;17.86;100.00;94795.22;5054019;28;20213;-64
2022/06/27 04:32:21;;;;;;;6.90;3.53;;;;;;;17.88;100.00;94795.06;5054139;28;20182;-62
2022/06/27 04:34:48;;;;;;;5.30;3.47;;;;;;;17.81;100.00;94789.00;5053756;28;20217;-63
2022/06/27 04:37:13;;;;;;;4.20;3.08;;;;;;;17.95;100.00;94791.66;5036230;28;20620;-63
2022/06/27 04:39:39;;;;;;;7.85;2.95;;;;;;;17.97;100.00;94792.28;5053821;28;20331;-65
2022/06/27 04:42:08;;;;;;;6.68;3.70;;;;;;;17.84;100.00;94789.47;5054234;28;20205;-64
2022/06/27 04:44:40;;;;;;;5.47;3.35;;;;;;;18.08;100.00;94809.09;5053642;28;20198;-63
2022/06/27 04:47:13;;;;;;;5.78;3.55;;;;;;;18.02;100.00;94807.19;5054324;28;20209;-62
2022/06/27 04:49:42;;;;;;;3.78;3.08;;;;;;;18.03;100.00;94791.59;5053787;28;20186;-63
2022/06/27 04:52:08;;;;;;;5.63;3.40;;;;;;;18.14;100.00;94791.19;5054195;28;20255;-63
2022/06/27 04:54:34;;;;;;;4.78;3.25;;;;;;;18.28;100.00;94800.72;5053641;28;20655;-63
2022/06/27 04:57:00;;;;;;;3.72;3.13;;;;;;;18.52;100.00;94814.41;5036014;28;20571;-63
2022/06/27 04:59:26;;;;;;;7.43;3.63;;;;;;;18.66;100.00;94818.78;5053738;28;20198;-64
2022/06/27 05:01:51;;;;;;;8.90;3.40;;;;;;;18.59;100.00;94821.25;5053889;28;20493;-61
2022/06/27 05:04:21;;;;;;;9.43;3.63;;;;;;;18.47;100.00;94796.09;5053542;28;20185;-62
2022/06/27 05:06:47;;;;;;;10.77;3.88;;;;;;;18.63;100.00;94795.94;5053929;28;20182;-59
2022/06/27 05:09:14;;;;;;;4.28;3.88;;;;;;;18.56;100.00;94787.34;5053398;28;20201;-60
2022/06/27 05:11:40;;;;;;;9.55;3.65;;;;;;;18.67;100.00;94797.19;5053924;28;20243;-63
2022/06/27 05:14:07;;;;;;;4.97;3.45;;;;;;;18.67;100.00;94810.06;5053326;28;20198;-66
2022/06/27 05:16:32;;;;;;;5.00;3.90;;;;;;;18.78;100.00;94807.09;5053864;28;20193;-65
2022/06/27 05:18:58;;;;;;;6.38;4.45;;;;;;;18.73;100.00;94805.03;5053491;28;20282;-61
2022/06/27 05:21:24;;;;;;;9.23;3.63;;;;;;;18.71;100.00;94804.41;5035434;28;20206;-64
2022/06/27 05:23:50;;;;;;;6.43;5.28;;;;;;;18.76;100.00;94798.75;5053435;28;20232;-62
2022/06/27 05:26:17;;;;;;;9.60;6.47;;;;;;;19.76;100.00;94791.13;5053485;28;20217;-64
2022/06/27 05:28:42;;;;;;;14.90;7.38;;;;;;;20.83;100.00;94790.91;5059311;22;20264;-65
2022/06/27 05:31:09;;;;;;;7.00;5.15;;;;;;;21.21;100.00;94801.72;5052884;28;20239;-65
2022/06/27 05:33:35;;;;;;;10.50;5.65;;;;;;;21.77;100.00;94812.72;5053744;28;20647;-65
2022/06/27 05:36:01;;;;;;;6.70;4.68;;;;;;;22.20;100.00;94878.03;5033599;28;20220;-63
2022/06/27 05:38:27;;;;;;;8.60;4.88;;;;;;;22.63;100.00;94876.72;5053678;28;20532;-63
2022/06/27 05:40:52;;;;;;;8.25;4.57;;;;;;;22.36;100.00;94912.13;5060356;22;20588;-64
2022/06/27 05:43:19;;;;;;;7.22;5.28;;;;;;;22.00;100.00;94890.88;5072887;28;20179;-63
2022/06/27 05:45:45;;;;;;;10.23;5.45;;;;;;;21.48;100.00;94865.53;5072877;28;20566;-64
2022/06/27 05:48:10;;;;;;;9.32;5.85;;;;;;;21.03;100.00;94842.78;5073235;28;20177;-65
2022/06/27 05:50:35;;;;;;;11.43;6.20;;;;;;;20.79;100.00;94825.06;5073115;28;20205;-63
2022/06/27 05:53:03;;;;;;;8.27;5.65;;;;;;;20.62;100.00;94826.34;5072845;28;20209;-64
2022/06/27 05:55:29;;;;;;;10.52;6.15;;;;;;;20.51;100.00;94824.25;5072139;28;20221;-62
2022/06/27 05:57:58;;;;;;;9.13;7.03;;;;;;;20.51;100.00;94826.84;5072733;28;20259;-64
2022/06/27 06:00:24;;;;;;;10.98;6.45;;;;;;;20.58;100.00;94838.03;5072903;28;20604;-64
2022/06/27 06:02:52;;;;;;;9.82;6.32;;;;;;;20.28;100.00;94821.09;5072884;28;20184;-60
2022/06/27 06:05:18;;;;;;;20.23;6.85;;;;;;;20.21;100.00;94821.03;5072938;28;20205;-63
2022/06/27 06:07:43;;;;;;;11.05;6.50;;;;;;;20.21;100.00;94812.47;5072734;28;20180;-63
2022/06/27 06:10:10;;;;;;;9.50;6.88;;;;;;;20.22;100.00;94822.59;5072309;28;20197;-63
2022/06/27 06:12:35;;;;;;;10.30;6.90;;;;;;;20.26;100.00;94821.25;5072620;28;20172;-63
2022/06/27 06:15:03;;;;;;;8.82;7.53;;;;;;;20.30;100.00;94819.91;5072504;28;20224;-64
2022/06/27 06:17:31;;;;;;;8.98;6.45;;;;;;;20.31;100.00;94815.53;5072243;28;20635;-64
2022/06/27 06:19:57;;;;;;;12.90;7.88;;;;;;;20.60;100.00;94833.50;5072587;28;20291;-60
2022/06/27 06:22:23;;;;;;;9.60;7.43;;;;;;;20.50;100.00;94814.91;5072786;28;20173;-62
2022/06/27 06:24:49;;;;;;;14.18;8.18;;;;;;;20.41;100.00;94818.59;5072416;28;20286;-63
2022/06/27 06:27:16;;;;;;;12.23;8.70;;;;;;;20.26;100.00;94817.88;5072042;28;20200;-61
2022/06/27 06:29:42;;;;;;;8.93;7.57;;;;;;;20.36;100.00;94826.13;5072383;28;20278;-64
2022/06/27 06:32:08;;;;;;;10.77;7.60;;;;;;;20.36;100.00;94820.97;5071918;28;20586;-63
2022/06/27 06:34:35;;;;;;;13.57;7.30;;;;;;;20.42;100.00;94818.41;5072423;28;20225;-61
2022/06/27 06:37:01;;;;;;;11.85;7.82;;;;;;;20.75;100.00;94822.06;5071908;28;20169;-61
2022/06/27 06:39:27;;;;;;;11.05;7.38;;;;;;;20.82;100.00;94825.53;5072678;28;20219;-61
2022/06/27 06:41:53;;;;;;;14.85;7.40;;;;;;;20.79;100.00;94825.88;5072316;28;20169;-60
2022/06/27 06:44:21;;;;;;;13.23;7.03;;;;;;;20.80;100.00;94813.75;5072105;28;20235;-64
2022/06/27 06:46:48;;;;;;;18.13;9.20;;;;;;;20.72;100.00;94835.38;5054365;28;20177;-64
2022/06/27 06:49:13;;;;;;;11.23;7.70;;;;;;;20.73;100.00;94836.16;5072448;28;20564;-63
2022/06/27 06:51:42;;;;;;;12.52;7.55;;;;;;;20.99;100.00;94844.09;5071861;28;20184;-62
2022/06/27 06:54:08;;;;;;;12.10;7.97;;;;;;;21.13;100.00;94843.22;5054386;28;20209;-64
2022/06/27 06:56:34;;;;;;;13.85;8.43;;;;;;;21.14;100.00;94837.09;5072111;28;20188;-66
2022/06/27 06:59:02;;;;;;;15.40;9.73;;;;;;;21.25;100.00;94841.72;5071971;28;20181;-63
2022/06/27 07:01:28;;;;;;;11.32;7.13;;;;;;;21.17;100.00;94857.38;5071660;28;20197;-62
2022/06/27 07:03:56;;;;;;;17.35;7.70;;;;;;;21.14;100.00;94865.53;5071777;28;20563;-64
2022/06/27 07:06:24;;;;;;;17.17;9.32;;;;;;;21.07;100.00;94869.84;5071568;28;20254;-63
2022/06/27 07:08:55;;;;;;;15.73;8.75;;;;;;;21.07;100.00;94851.75;5071601;28;20185;-61
2022/06/27 07:11:22;;;;;;;13.32;8.43;;;;;;;21.17;100.00;94887.63;5071614;28;20193;-64
2022/06/27 07:13:51;;;;;;;16.38;11.13;;;;;;;21.46;100.00;94883.03;5071451;28;20180;-63
2022/06/27 07:16:18;;;;;;;15.40;7.65;;;;;;;21.53;100.00;94881.28;5071853;28;20254;-64
2022/06/27 07:18:46;;;;;;;9.07;6.70;;;;;;;21.66;100.00;94873.59;5071563;28;20189;-64
2022/06/27 07:21:13;;;;;;;12.45;7.43;;;;;;;21.57;100.00;94923.91;5071771;28;20219;-60
2022/06/27 07:23:39;;;;;;;8.80;5.57;;;;;;;21.72;100.00;94952.25;5071443;28;20260;-65
2022/06/27 07:26:06;;;;;;;11.40;6.15;;;;;;;21.93;100.00;94974.72;5071451;28;20224;-63
2022/06/27 07:28:32;;;;;;;7.47;5.25;;;;;;;21.79;100.00;94934.19;5071431;28;20169;-61
2022/06/27 07:30:58;;;;;;;7.07;6.40;;;;;;;21.88;100.00;94944.22;5071459;28;20201;-60
2022/06/27 07:33:24;;;;;;;8.40;6.00;;;;;;;21.88;100.00;94933.06;5071273;28;20192;-64
2022/06/27 07:35:50;;;;;;;7.65;5.38;;;;;;;21.78;100.00;94974.78;5071669;28;20681;-64
2022/06/27 07:38:15;;;;;;;12.23;5.82;;;;;;;21.79;100.00;94954.91;5071495;28;20173;-60
2022/06/27 07:40:42;;;;;;;10.15;5.32;;;;;;;21.79;100.00;94984.19;5071121;28;20689;-60
2022/06/27 07:43:13;;;;;;;5.78;5.20;;;;;;;21.93;100.00;94949.63;5071289;28;20222;-64
2022/06/27 07:45:40;;;;;;;5.68;5.03;;;;;;;22.13;100.00;94931.59;5071267;28;20608;-64
2022/06/27 07:48:06;;;;;;;7.15;5.32;;;;;;;22.36;100.00;94934.66;5071173;28;20641;-63
2022/06/27 07:50:42;;;;;;;12.52;4.85;;;;;;;22.28;100.00;95004.78;5071509;28;20760;-64
2022/06/27 07:53:19;;;;;;;7.72;4.70;;;;;;;22.27;100.00;95016.13;5059972;22;20229;-63
2022/06/27 07:55:56;;;;;;;7.15;4.45;;;;;;;22.24;99.29;95021.72;5054970;28;20614;-63
2022/06/27 07:58:30;;;;;;;4.90;4.40;;;;;;;22.21;99.19;95004.75;5053426;28;20250;-63
2022/06/27 08:00:58;;;;;;;6.90;4.35;;;;;;;22.32;99.39;94999.00;5053867;28;20282;-64
2022/06/27 08:03:44;;;;;;;6.05;4.70;;;;;;;22.37;100.00;94944.81;5062015;22;20233;-63
2022/06/27 08:06:24;;;;;;;4.90;4.00;;;;;;;22.42;98.53;95006.44;5055051;28;20247;-65
2022/06/27 08:08:54;;;;;;;4.53;4.10;;;;;;;22.53;100.00;94960.03;5054836;28;20204;-60
2022/06/27 08:11:25;;;;;;;6.90;4.38;;;;;;;22.60;98.87;95000.75;5054685;28;20205;-64
2022/06/27 08:13:52;;;;;;;6.80;4.13;;;;;;;22.62;96.03;95041.03;5054595;28;20178;-60
2022/06/27 08:16:20;;;;;;;8.70;4.45;;;;;;;22.76;99.08;94983.06;5054757;28;20232;-62
2022/06/27 08:18:47;;;;;;;5.07;4.25;;;;;;;22.74;97.77;94992.81;5054324;28;20174;-63
2022/06/27 08:21:17;;;;;;;4.63;3.80;;;;;;;22.92;98.55;94982.69;5037018;28;20233;-64
2022/06/27 08:23:44;;;;;;;7.35;4.75;;;;;;;22.90;98.48;94995.06;5036697;28;20170;-64
2022/06/27 08:26:12;;;;;;;6.10;4.18;;;;;;;22.79;95.49;95036.28;5054420;28;20214;-62
2022/06/27 08:28:39;;;;;;;4.55;4.07;;;;;;;22.80;95.41;95017.97;5036523;28;20720;-64
2022/06/27 08:31:12;;;;;;;5.22;4.72;;;;;;;22.90;96.39;95002.03;5054164;28;20257;-60
2022/06/27 08:33:39;;;;;;;6.03;4.57;;;;;;;23.16;93.71;95054.75;5054294;28;20621;-67
2022/06/27 08:36:06;;;;;;;5.45;4.13;;;;;;;23.30;95.69;95003.66;5053989;28;20216;-62
2022/06/27 08:38:40;;;;;;;5.72;4.38;;;;;;;23.22;94.02;95032.41;5054235;28;20190;-63
2022/06/27 08:41:07;;;;;;;4.75;3.90;;;;;;;23.26;94.42;95024.03;5054010;28;20243;-62
2022/06/27 08:43:34;;;;;;;5.78;4.28;;;;;;;23.10;94.46;95015.81;5054245;28;20550;-63
2022/06/27 08:46:00;;;;;;;4.78;3.83;;;;;;;23.12;92.80;95038.00;5053830;28;20205;-63
2022/06/27 08:48:28;;;;;;;6.03;4.05;;;;;;;23.31;96.61;94958.56;5053603;28;20189;-63
2022/06/27 08:50:57;;;;;;;4.15;3.75;;;;;;;23.42;97.27;94964.97;5035930;28;20196;-60
2022/06/27 08:53:25;;;;;;;4.53;4.13;;;;;;;23.69;96.91;94976.94;5054025;28;20259;-64
2022/06/27 08:55:51;;;;;;;4.00;3.63;;;;;;;23.72;96.08;94979.09;5060644;22;20232;-62
2022/06/27 08:58:17;;;;;;;5.75;3.83;;;;;;;23.84;94.72;95013.84;5054039;28;20201;-60
2022/06/27 09:00:46;;;;;;;4.13;3.78;;;;;;;23.92;95.70;94991.06;5053606;28;20619;-63
2022/06/27 09:03:13;;;;;;;4.20;3.83;;;;;;;23.93;93.73;95023.03;5052768;28;20184;-64
2022/06/27 09:05:39;;;;;;;4.20;3.80;;;;;;;24.02;95.08;94996.63;5053641;28;20403;-63
2022/06/27 09:08:06;;;;;;;5.80;4.20;;;;;;;24.09;90.92;95072.81;5053483;28;20174;-64
2022/06/27 09:10:34;;;;;;;4.18;3.80;;;;;;;24.08;90.40;95067.78;5053827;28;20288;-63
2022/06/27 09:13:05;;;;;;;5.88;3.47;;;;;;;24.02;92.14;95032.19;5053448;28;20174;-64
2022/06/27 09:15:48;;;;;;;5.20;3.60;;;;;;;24.00;90.26;95068.78;5053737;28;20670;-65
2022/06/27 09:18:17;;;;;;;6.78;4.00;;;;;;;24.11;87.26;95120.19;5053232;28;20651;-65
2022/06/27 09:20:46;;;;;;;4.32;3.42;;;;;;;24.31;87.12;95103.75;5053223;28;20205;-64
2022/06/27 09:23:42;;;;;;;12.20;4.88;;;;;;;24.78;90.35;95022.81;5053380;28;20173;-63
2022/06/27 09:26:15;;;;;;;15.25;5.15;;;;;;;25.26;91.55;95025.75;5035419;28;20239;-61
2022/06/27 09:28:47;;;;;;;8.93;4.25;;;;;;;25.48;93.51;94964.50;5053379;28;20216;-63
2022/06/27 09:31:43;;;;;;;9.23;4.47;;;;;;;25.71;86.29;95105.38;5053029;28;20213;-64
2022/06/27 09:34:23;;;;;;;11.82;9.65;;;;;;;25.79;90.66;95014.75;5043856;28;20202;-64
2022/06/27 09:37:01;;;;;;;7.40;3.72;;;;;;;25.88;86.22;95090.03;5052942;28;20174;-64
2022/06/27 09:39:30;;;;;;;4.55;3.42;;;;;;;26.11;91.38;94981.56;5053098;28;20268;-63
2022/06/27 09:41:58;;;;;;;11.32;3.92;;;;;;;26.06;80.81;95176.09;5052810;28;20226;-64
2022/06/27 09:44:30;;;;;;;6.72;4.00;;;;;;;25.59;80.38;95107.06;5052929;28;20181;-64
2022/06/27 09:47:04;;;;;;;4.45;3.72;;;;;;;25.50;81.90;95045.81;5052694;28;20186;-60
2022/06/27 09:49:36;;;;;;;4.63;3.60;;;;;;;25.61;83.90;95006.09;5052769;28;20202;-63
2022/06/27 09:52:11;;;;;;;3.42;3.13;;;;;;;25.75;80.72;95046.63;5059918;22;20233;-62
2022/06/27 09:54:39;;;;;;;8.63;3.65;;;;;;;25.76;75.93;95080.28;5052758;28;20224;-63
2022/06/27 09:57:05;;;;;;;8.15;4.57;;;;;;;25.63;69.95;95118.66;5052451;28;20181;-64
2022/06/27 09:59:32;;;;;;;6.40;3.83;;;;;;;25.37;69.65;95090.16;5052357;28;20193;-60
2022/06/27 10:01:58;;;;;;;6.25;3.95;;;;;;;25.11;69.79;95061.69;5052443;28;20182;-65
2022/06/27 10:04:29;;;;;;;4.30;3.97;;;;;;;24.91;69.17;95069.56;5052759;28;20200;-63
2022/06/27 10:06:58;;;;;;;4.57;3.72;;;;;;;24.81;70.21;95051.81;5059525;22;20308;-64
2022/06/27 10:09:25;;;;;;;4.15;3.38;;;;;;;24.72;70.89;95021.03;5034364;28;20186;-64
2022/06/27 10:12:21;;;;;;;9.30;4.15;;;;;;;24.63;72.55;94991.84;5052492;28;20261;-63
2022/06/27 10:15:09;;;;;;;3.85;3.55;;;;;;;24.69;71.15;95022.22;5043935;28;20597;-63
2022/06/27 10:17:57;;;;;;;5.07;3.13;;;;;;;24.69;71.71;95001.44;5051881;28;20181;-59
2022/06/27 10:20:28;;;;;;;4.40;3.10;;;;;;;25.13;73.62;94963.38;5051733;28;20263;-60
2022/06/27 10:23:09;;;;;;;5.20;3.95;;;;;;;25.64;72.80;94985.59;5052133;28;20779;-59
2022/06/27 10:25:36;;;;;;;4.18;3.33;;;;;;;25.91;71.25;95024.44;5051908;28;20209;-60
2022/06/27 10:28:14;;;;;;;6.03;3.78;;;;;;;25.63;72.23;94985.84;5051997;28;20201;-60
2022/06/27 10:30:44;;;;;;;4.18;3.15;;;;;;;25.92;72.48;94966.91;5052062;28;20206;-60
2022/06/27 10:33:28;;;;;;;6.38;3.28;;;;;;;25.79;71.45;95004.31;5051626;28;20655;-61
2022/06/27 10:38:34;;;;;;;3.72;3.38;;;;;;;25.61;70.86;95000.88;5051594;28;20235;-61
2022/06/27 10:41:02;;;;;;;5.55;3.33;;;;;;;25.66;71.79;94973.16;5051929;28;20197;-60
2022/06/27 10:43:37;;;;;;;5.45;3.85;;;;;;;25.90;66.95;95080.97;5051651;28;20257;-60
2022/06/27 10:46:08;;;;;;;3.45;2.92;;;;;;;26.09;63.35;95147.81;5033564;28;20241;-59
2022/06/27 10:48:37;;;;;;;4.03;3.40;;;;;;;26.52;66.22;95054.72;5051446;28;20185;-60
2022/06/27 10:51:22;;;;;;;3.30;3.00;;;;;;;27.06;65.63;95068.75;5033672;28;20264;-63
2022/06/27 10:53:52;;;;;;;4.72;3.50;;;;;;;27.49;63.79;95123.44;5051614;28;20177;-60
2022/06/27 10:56:42;;;;;;;3.38;2.90;;;;;;;27.42;61.65;95155.69;5051732;28;20324;-61
2022/06/27 10:59:13;;;;;;;3.53;2.95;;;;;;;27.93;61.93;95109.91;5051582;28;20166;-60
2022/06/27 11:01:40;;;;;;;4.55;3.28;;;;;;;28.03;62.06;95118.03;5051793;28;20736;-59
2022/06/27 11:04:06;;;;;;;5.20;3.20;;;;;;;28.09;59.83;95164.19;5051116;28;20252;-64
2022/06/27 11:06:32;;;;;;;4.03;3.05;;;;;;;28.10;59.11;95160.53;5033473;28;20213;-64
2022/06/27 11:08:58;;;;;;;4.75;3.50;;;;;;;27.58;59.21;95156.06;5051168;28;20184;-59
2022/06/27 11:11:27;;;;;;;6.25;3.17;;;;;;;27.69;60.75;95110.91;5051607;28;20202;-60
2022/06/27 11:13:54;;;;;;;3.08;2.78;;;;;;;28.03;58.68;95158.06;5051302;28;20178;-60
2022/06/27 11:16:28;;;;;;;6.43;3.28;;;;;;;28.18;60.44;95103.47;5057896;22;20225;-60
2022/06/27 11:19:02;;;;;;;3.63;3.33;;;;;;;27.97;57.72;95174.66;5051543;28;20260;-60
2022/06/27 11:21:38;;;;;;;3.35;2.55;;;;;;;28.29;56.13;95190.84;5033369;28;20208;-59
2022/06/27 11:24:09;;;;;;;3.53;2.97;;;;;;;28.42;53.73;95222.03;5051135;28;20222;-59
2022/06/27 11:26:38;;;;;;;3.80;2.70;;;;;;;27.87;52.98;95218.81;5052026;28;20186;-60
2022/06/27 11:31:58;;;;;;;3.85;2.53;;;;;;;28.81;55.53;95147.28;5055416;28;20655;-64
2022/06/27 11:34:25;;;;;;;3.75;2.97;;;;;;;28.65;51.33;95244.81;5055018;28;20860;-64
2022/06/27 11:36:52;;;;;;;2.55;2.40;;;;;;;28.61;51.66;95217.50;5055200;28;20294;-64